Terminal Aerodrome Forecast
Issued by NWS

Home | Current Version | Previous Version | Text Only | Print | Product List | Glossary On
Versions: 1 2 3 4 5 6 7 8 9 10 11 12 13 14 15 16 17 18
000
FTUS44 KMOB 280520
TAFBFM
TAF
KBFM 280520Z 2806/2906 01011G17KT P6SM -RA FEW080 BKN100 BKN120
      TEMPO 2807/2810 5SM -SHRA SCT007 BKN015 OVC035
     FM281300 36012G20KT 5SM -RA BKN007 OVC015
     FM281800 36012G24KT P6SM VCSH SCT007 OVC015
     FM290100 33010KT P6SM OVC015=

USA.gov is the U.S. government's official web portal to all federal, state and local government web resources and services.